Terminal Aerodrome Forecast
Issued by NWS Jacksonville, FL

Home | Current Version | Previous Version | Text Only | Print | Product List | Glossary On
Versions: 1 2 3 4 5 6 7 8 9 10 11 12 13 14 15 16 17 18 19 20 21 22 23
245
FTUS42 KJAX 241740
TAFGNV
TAF
KGNV 241740Z 2418/2518 08008KT P6SM SCT030
      TEMPO 2418/2421 BKN028
     FM250000 04003KT P6SM FEW030
     FM250400 18003KT 6SM BR SCT020
     FM250600 00000KT 1SM BR BKN006
     FM251400 27008KT P6SM SCT030=

USA.gov is the U.S. government's official web portal to all federal, state and local government web resources and services.